SBGL/GIG METAR and TAF weather

Enter ICAO airport designator
Station Type Date Time Source
SBGL METAR 2019/02/16 07:00 UTC NOAA

SBGL 160700Z 07006KT 9000 NSC 23/22 Q1006


Station Type Date Time Source
SBGL Decoded METAR 2019/02/16 07:00 UTC NOAA

Galeao, Brazil (SBGL) 22-49S 043-15W 42M
Feb 16, 2019 - 02:00 AM EST / 2019.02.16 0700 UTC
Wind: from the ENE (070 degrees) at 7 MPH (6 KT):0
Visibility: 5 mile(s):0
Temperature: 73 F (23 C)
Dew Point: 71 F (22 C)
Relative Humidity: 94%
Pressure (altimeter): 29.71 in. Hg (1006 hPa)
ob: SBGL 160700Z 07006KT 9000 NSC 23/22 Q1006
cycle: 7

Station Type Date Time Source
SBGL TAF 2019/02/16 06:48 UTC NOAA

TAF SBGL 160344Z 1606/1712 09005KT 7000 FEW020 BKN040 TN23/1608Z TX28/1617Z
BECMG 1607/1609 34004KT PROB30
TEMPO 1609/1612 4000 RA BKN012
BECMG 1614/1616 21010KT
BECMG 1617/1619 15010KT
TEMPO 1619/1623 4000 TSRA BKN020 FEW030CB
BECMG 1623/1701 28005KT
BECMG 1707/1709 34005KT
RMK PHI


Example: see airport list